Terminal Aerodrome Forecast
Issued by NWS

Home | Current Version | Previous Version | Text Only | Print | Product List | Glossary On
Versions: 1 2 3 4 5 6 7 8 9 10 11 12 13 14 15 16 17 18 19 20
000
FTUS45 KABQ 171100
TAFLVS
TAF
KLVS 171140Z 1712/1812 VRB06KT P6SM SCT020 BKN120
     FM171700 16011KT P6SM VCSH SCT020 BKN080
      TEMPO 1718/1722 16011G19KT 6SM -RA SCT015 BKN050
     FM172200 18011G19KT P6SM BKN100
     FM180100 16006KT P6SM BKN100=

USA.gov is the U.S. government's official web portal to all federal, state and local government web resources and services.